Time;durP1;ratioP1;P1;durP2;ratioP2;P2;SDS_P1;SDS_P2;PMS_P1;PMS_P2;Temp;Humidity;BMP_temperature;BMP_pressure;BME280_temperature;BME280_humidity;BME280_pressure;Samples;Min_cycle;Max_cycle;Signal;HPM_P1;HPM_P2
2023/07/16 00:01:10;;;;;;;8.70;6.60;;;;;;;21.78;55.87;99461.02;218369;1257;138495;-71
2023/07/16 00:06:33;;;;;;;6.30;5.80;;;;;;;21.74;56.14;99455.50;217930;1257;244784;-71
2023/07/16 00:11:37;;;;;;;5.40;4.90;;;;;;;21.74;56.34;99452.31;218443;1260;138893;-71
2023/07/16 00:16:42;;;;;;;6.10;5.50;;;;;;;21.73;56.36;99445.83;219427;1257;139121;-68
2023/07/16 00:21:46;;;;;;;8.50;6.20;;;;;;;21.68;56.61;99446.85;218340;1257;138936;-68
2023/07/16 00:26:51;;;;;;;7.60;6.00;;;;;;;21.62;56.66;99440.42;218729;1257;138945;-68
2023/07/16 00:31:55;;;;;;;6.80;6.10;;;;;;;21.58;56.81;99436.84;217676;1257;138790;-68
2023/07/16 00:37:01;;;;;;;5.50;5.10;;;;;;;21.56;57.05;99435.96;218264;1257;138899;-68
2023/07/16 00:42:05;;;;;;;;;;;;;;;21.51;57.16;99432.63;219671;1256;139717;-68
2023/07/16 00:47:10;;;;;;;5.50;5.00;;;;;;;21.43;57.44;99426.11;219533;1260;125353;-69
2023/07/16 00:52:19;;;;;;;6.60;5.90;;;;;;;21.41;57.62;99421.84;219991;1257;139291;-68
2023/07/16 00:57:23;;;;;;;8.30;5.60;;;;;;;21.37;57.78;99415.30;218809;1257;141369;-70
2023/07/16 01:02:27;;;;;;;6.10;5.60;;;;;;;21.30;58.07;99412.40;219384;1256;139029;-70
2023/07/16 01:07:33;;;;;;;5.90;5.40;;;;;;;21.23;58.21;99406.14;220370;1256;139740;-69
2023/07/16 01:12:40;;;;;;;5.40;5.00;;;;;;;21.18;58.50;99398.76;220446;1260;138290;-69
2023/07/16 01:17:45;;;;;;;5.80;5.30;;;;;;;21.16;58.68;99396.48;219935;1257;149922;-70
2023/07/16 01:23:13;;;;;;;8.60;6.00;;;;;;;21.14;58.90;99395.71;218460;1259;139966;-67
2023/07/16 01:28:23;;;;;;;5.50;5.10;;;;;;;21.11;59.13;99390.35;218850;1256;140421;-71
2023/07/16 01:33:27;;;;;;;5.50;4.90;;;;;;;21.06;59.43;99386.41;219791;1259;139988;-69
2023/07/16 01:38:32;;;;;;;6.20;5.60;;;;;;;21.01;59.50;99383.23;218356;1259;139691;-74
2023/07/16 01:43:36;;;;;;;6.40;5.80;;;;;;;20.98;59.77;99389.40;218081;1259;139392;-75
2023/07/16 01:48:40;;;;;;;6.30;5.70;;;;;;;20.93;59.91;99399.66;218158;1259;139724;-76
2023/07/16 01:53:44;;;;;;;5.90;5.40;;;;;;;20.86;60.14;99405.46;217941;1259;139814;-70
2023/07/16 01:58:49;;;;;;;9.30;6.60;;;;;;;20.81;60.50;99401.86;218704;1256;139677;-69
2023/07/16 02:03:54;;;;;;;12.90;6.70;;;;;;;20.80;60.69;99399.55;217986;1257;139902;-70
2023/07/16 02:08:58;;;;;;;6.60;6.10;;;;;;;20.78;60.94;99402.42;218158;1256;140359;-69
2023/07/16 02:14:02;;;;;;;6.80;6.30;;;;;;;20.75;61.02;99400.35;217701;1257;139364;-69
2023/07/16 02:19:07;;;;;;;6.90;6.30;;;;;;;20.71;61.19;99395.15;217732;1257;139919;-68
2023/07/16 02:24:11;;;;;;;7.80;6.90;;;;;;;20.65;61.48;99394.53;218941;1257;139351;-75
2023/07/16 02:29:15;;;;;;;7.40;6.60;;;;;;;20.58;61.80;99394.92;218776;1258;140865;-70
2023/07/16 02:34:19;;;;;;;6.60;6.20;;;;;;;20.52;61.82;99394.89;217829;1259;140399;-69
2023/07/16 02:39:24;;;;;;;6.90;6.30;;;;;;;20.47;61.94;99396.04;218417;1259;140850;-68
2023/07/16 02:44:29;;;;;;;9.10;6.50;;;;;;;20.41;62.18;99392.48;218092;1257;139750;-68
2023/07/16 02:49:33;;;;;;;7.20;6.60;;;;;;;20.34;62.33;99397.80;220556;1257;140177;-68
2023/07/16 02:54:38;;;;;;;6.80;6.20;;;;;;;20.30;62.55;99400.44;219416;1260;229683;-68
2023/07/16 02:59:42;;;;;;;7.10;6.50;;;;;;;20.27;62.65;99404.74;220553;1259;139588;-69
2023/07/16 03:04:47;;;;;;;6.20;5.60;;;;;;;20.24;62.94;99405.45;220788;1259;142455;-69
2023/07/16 03:09:52;;;;;;;7.50;6.90;;;;;;;20.24;63.24;99408.25;220588;1255;140193;-68
2023/07/16 03:14:57;;;;;;;7.80;7.10;;;;;;;20.26;63.28;99404.55;220624;1256;140279;-69
2023/07/16 03:20:06;;;;;;;7.80;7.00;;;;;;;20.28;63.40;99404.54;217944;1256;139629;-69
2023/07/16 03:25:10;;;;;;;8.00;7.10;;;;;;;20.30;63.70;99402.55;218407;1258;140307;-68
2023/07/16 03:30:14;;;;;;;6.40;5.90;;;;;;;20.32;63.75;99405.74;219292;1257;139769;-69
2023/07/16 03:35:18;;;;;;;8.10;7.00;;;;;;;20.35;64.10;99403.73;219092;1256;141610;-68
2023/07/16 03:40:26;;;;;;;7.20;6.50;;;;;;;20.40;64.19;99402.45;218818;1257;139910;-67
2023/07/16 03:45:31;;;;;;;7.60;6.70;;;;;;;20.51;64.38;99401.89;219129;1256;139362;-68
2023/07/16 03:50:36;;;;;;;6.90;6.40;;;;;;;20.65;64.45;99402.54;218684;1260;139103;-68
2023/07/16 03:55:40;;;;;;;10.90;7.30;;;;;;;20.81;64.30;99401.04;217773;1259;138975;-66
2023/07/16 04:00:45;;;;;;;7.00;6.40;;;;;;;20.99;64.26;99396.35;218199;1257;139769;-67
2023/07/16 04:05:50;;;;;;;7.00;6.40;;;;;;;21.23;63.91;99400.42;218543;1258;140114;-68
2023/07/16 04:10:54;;;;;;;8.70;7.30;;;;;;;21.38;63.81;99405.26;218695;1258;139774;-71
2023/07/16 04:15:59;;;;;;;6.80;6.00;;;;;;;21.53;63.62;99404.56;217807;1258;141842;-70
2023/07/16 04:21:05;;;;;;;8.20;7.40;;;;;;;21.66;63.54;99406.67;218300;1260;139324;-70
2023/07/16 04:26:10;;;;;;;10.60;6.80;;;;;;;21.84;63.47;99406.41;218545;1260;139671;-71
2023/07/16 04:31:14;;;;;;;7.20;6.50;;;;;;;22.29;63.08;99401.29;219039;1257;139682;-73
2023/07/16 04:36:20;;;;;;;8.30;5.80;;;;;;;23.13;61.97;99408.95;219509;1255;139721;-74
2023/07/16 04:41:25;;;;;;;7.40;6.70;;;;;;;23.37;61.49;99406.89;217860;1257;144887;-69
2023/07/16 04:46:30;;;;;;;9.00;7.00;;;;;;;24.51;59.70;99415.41;219161;1257;140115;-69
2023/07/16 04:51:35;;;;;;;11.30;6.30;;;;;;;24.78;59.13;99415.08;217864;1257;140108;-69
2023/07/16 04:56:40;;;;;;;10.80;6.80;;;;;;;25.00;57.93;99418.34;220183;1257;141190;-69
2023/07/16 05:01:44;;;;;;;6.90;6.30;;;;;;;25.06;57.57;99427.04;220569;1256;161695;-72
2023/07/16 05:06:49;;;;;;;7.40;6.40;;;;;;;25.30;57.45;99436.86;218073;1257;138804;-71
2023/07/16 05:11:53;;;;;;;6.60;5.40;;;;;;;26.69;55.99;99443.11;220354;1257;138906;-69
2023/07/16 05:16:57;;;;;;;6.50;6.10;;;;;;;27.63;54.31;99455.85;220427;1258;138812;-76
2023/07/16 05:22:02;;;;;;;6.40;5.90;;;;;;;28.89;52.15;99462.42;219062;1257;139900;-72
2023/07/16 05:27:06;;;;;;;6.00;5.50;;;;;;;32.25;48.25;99478.10;218744;1256;140239;-74
2023/07/16 05:32:10;;;;;;;4.90;4.60;;;;;;;35.41;44.32;99495.98;218610;1257;385753;-72
2023/07/16 05:37:15;;;;;;;5.40;4.90;;;;;;;37.46;40.27;99513.61;218738;1257;139390;-73
2023/07/16 05:42:19;;;;;;;4.30;4.00;;;;;;;38.64;37.40;99509.98;217772;1257;139889;-74
2023/07/16 05:47:24;;;;;;;3.80;3.40;;;;;;;39.91;35.27;99495.77;217914;1254;139020;-73
2023/07/16 05:52:29;;;;;;;3.30;3.10;;;;;;;41.08;33.22;99492.42;218056;1257;139196;-74
2023/07/16 05:57:34;;;;;;;3.80;2.90;;;;;;;42.19;31.67;99516.96;218298;1254;139954;-74
2023/07/16 06:02:40;;;;;;;6.30;4.50;;;;;;;42.71;29.77;99515.52;219010;1254;139464;-71
2023/07/16 06:07:44;;;;;;;5.70;4.40;;;;;;;43.28;29.09;99518.20;218136;1254;140796;-74
2023/07/16 06:12:52;;;;;;;4.00;3.70;;;;;;;44.09;28.33;99517.36;218574;1254;139428;-70
2023/07/16 06:17:57;;;;;;;4.90;3.70;;;;;;;44.24;27.03;99515.23;218312;1254;139022;-70
2023/07/16 06:23:01;;;;;;;4.60;4.20;;;;;;;43.85;26.57;99517.09;219021;1254;139597;-71
2023/07/16 06:28:06;;;;;;;4.40;2.70;;;;;;;43.09;26.84;99529.69;218705;1254;139394;-69
2023/07/16 06:33:11;;;;;;;3.60;3.40;;;;;;;43.18;26.91;99534.63;219046;1254;139359;-74
2023/07/16 06:38:16;;;;;;;3.40;3.10;;;;;;;43.34;26.76;99533.66;218393;1255;140476;-72
2023/07/16 06:43:22;;;;;;;4.80;3.40;;;;;;;43.43;26.44;99531.44;217836;1254;138728;-72
2023/07/16 06:48:31;;;;;;;3.50;3.30;;;;;;;43.04;26.53;99534.77;218524;1254;139236;-73
2023/07/16 06:53:36;;;;;;;3.30;3.10;;;;;;;41.65;27.33;99528.81;218005;1253;139765;-72
2023/07/16 06:58:41;;;;;;;7.90;3.50;;;;;;;41.30;27.61;99530.90;220209;1254;138531;-73
2023/07/16 07:03:47;;;;;;;4.30;3.00;;;;;;;41.39;27.72;99535.58;220658;1254;140318;-70
2023/07/16 07:08:52;;;;;;;4.30;3.50;;;;;;;41.00;27.88;99532.48;220576;1254;138203;-76
2023/07/16 07:13:57;;;;;;;5.90;3.40;;;;;;;41.48;28.22;99540.88;218697;1254;139539;-72
2023/07/16 07:19:02;;;;;;;3.60;3.20;;;;;;;42.10;28.19;99539.91;217793;1254;139242;-73
2023/07/16 07:24:07;;;;;;;3.40;3.10;;;;;;;42.52;27.50;99555.23;220767;1253;139409;-77
2023/07/16 07:29:12;;;;;;;4.00;3.60;;;;;;;42.02;27.54;99555.14;218473;1254;139757;-72
2023/07/16 07:34:16;;;;;;;3.20;3.00;;;;;;;41.51;28.08;99554.63;219092;1254;139683;-72
2023/07/16 07:39:22;;;;;;;5.30;3.80;;;;;;;40.62;28.65;99545.70;217694;1259;138988;-74
2023/07/16 07:44:30;;;;;;;3.00;2.80;;;;;;;40.12;29.31;99549.63;217623;1254;139815;-73
2023/07/16 07:49:35;;;;;;;3.80;3.20;;;;;;;39.86;29.28;99549.42;218279;1254;138595;-75
2023/07/16 07:54:40;;;;;;;2.90;2.70;;;;;;;39.51;29.03;99562.48;217796;1254;138753;-77
2023/07/16 07:59:51;;;;;;;11.90;3.70;;;;;;;39.21;29.57;99565.14;218596;1254;139916;-76
2023/07/16 08:04:57;;;;;;;3.40;2.80;;;;;;;39.03;29.41;99568.98;218095;1258;138791;-72
2023/07/16 08:10:05;;;;;;;11.30;3.10;;;;;;;38.49;29.49;99572.69;218340;1254;139894;-71
2023/07/16 08:15:14;;;;;;;3.60;3.30;;;;;;;38.29;29.71;99576.95;218139;1254;138962;-77
2023/07/16 08:20:20;;;;;;;2.60;2.40;;;;;;;38.26;29.53;99585.67;217723;1257;139757;-73
2023/07/16 08:25:26;;;;;;;2.80;2.40;;;;;;;38.09;29.40;99588.05;217762;1259;139062;-70
2023/07/16 08:30:32;;;;;;;4.50;2.80;;;;;;;37.62;29.33;99596.48;217756;1254;138992;-69
2023/07/16 08:35:39;;;;;;;2.80;2.60;;;;;;;37.54;29.37;99603.69;217734;1257;138797;-69
2023/07/16 08:40:50;;;;;;;3.80;2.40;;;;;;;37.20;29.36;99601.52;218044;1254;138831;-73
2023/07/16 08:45:57;;;;;;;3.00;2.60;;;;;;;36.73;30.15;99609.48;219488;1254;138731;-68
2023/07/16 08:51:03;;;;;;;5.00;2.90;;;;;;;36.33;30.23;99618.45;217713;1255;139465;-78
2023/07/16 08:56:13;;;;;;;3.10;2.70;;;;;;;36.02;30.56;99612.71;219220;1254;138997;-81
2023/07/16 09:01:20;;;;;;;3.00;2.80;;;;;;;35.90;30.65;99614.70;219980;1256;139491;-74
2023/07/16 09:06:28;;;;;;;14.00;2.60;;;;;;;36.11;31.07;99625.39;220905;1254;140050;-76
2023/07/16 09:11:33;;;;;;;4.10;2.40;;;;;;;36.32;30.90;99626.51;219915;1254;141210;-75
2023/07/16 09:16:38;;;;;;;6.50;2.80;;;;;;;36.39;30.71;99620.23;217695;1257;139067;-73
2023/07/16 09:21:43;;;;;;;15.00;2.80;;;;;;;36.08;30.78;99634.11;220552;1253;138554;-74
2023/07/16 09:26:53;;;;;;;2.60;2.30;;;;;;;35.96;30.84;99638.84;219075;1254;139092;-76
2023/07/16 09:32:02;;;;;;;2.20;2.00;;;;;;;36.20;30.95;99634.20;217971;1254;138977;-71
2023/07/16 09:37:06;;;;;;;2.50;2.30;;;;;;;36.41;30.67;99625.53;219006;1254;139610;-73
2023/07/16 09:42:12;;;;;;;4.00;2.50;;;;;;;36.32;30.72;99621.48;218293;1259;139395;-69
2023/07/16 09:47:18;;;;;;;2.50;2.30;;;;;;;36.21;30.84;99611.34;218353;1254;138686;-69
2023/07/16 09:52:23;;;;;;;3.00;2.40;;;;;;;36.14;30.78;99606.00;219787;1253;138999;-69
2023/07/16 09:57:32;;;;;;;2.20;1.60;;;;;;;36.07;30.91;99608.31;218033;1254;138959;-68
2023/07/16 10:02:38;;;;;;;1.90;1.80;;;;;;;36.10;30.84;99612.46;218772;1254;138842;-70
2023/07/16 10:07:43;;;;;;;4.50;2.40;;;;;;;36.14;30.83;99615.20;218461;1254;138655;-71
2023/07/16 10:13:02;;;;;;;2.00;1.90;;;;;;;36.02;30.54;99607.16;218129;1254;139642;-70
2023/07/16 10:18:08;;;;;;;5.00;2.00;;;;;;;36.18;30.81;99593.29;218363;1257;139153;-83
2023/07/16 10:23:15;;;;;;;1.70;1.60;;;;;;;36.38;30.94;99596.38;218533;1254;138646;-74
2023/07/16 10:28:30;;;;;;;3.30;2.10;;;;;;;36.36;30.68;99594.33;218219;1254;140577;-71
2023/07/16 10:33:38;;;;;;;1.90;1.80;;;;;;;36.04;30.93;99592.54;219082;1254;139231;-72
2023/07/16 10:38:43;;;;;;;2.00;1.90;;;;;;;35.97;31.11;99595.47;218691;1256;139183;-76
2023/07/16 10:43:48;;;;;;;2.20;2.10;;;;;;;36.32;30.57;99592.06;218934;1254;139104;-69
2023/07/16 10:48:56;;;;;;;4.40;1.90;;;;;;;36.55;30.90;99599.36;219014;1254;139584;-69
2023/07/16 10:54:02;;;;;;;1.90;1.80;;;;;;;36.61;30.33;99605.89;219187;1254;139474;-73
2023/07/16 10:59:10;;;;;;;1.80;1.70;;;;;;;36.69;30.05;99607.54;220786;1253;139224;-69
2023/07/16 11:04:15;;;;;;;4.10;2.10;;;;;;;36.77;29.95;99607.15;220374;1254;139112;-69
2023/07/16 11:09:21;;;;;;;1.80;1.70;;;;;;;36.58;30.13;99601.56;220722;1254;161283;-85
2023/07/16 11:14:27;;;;;;;3.30;1.80;;;;;;;36.59;30.45;99602.59;218532;1254;138812;-88
2023/07/16 11:19:32;;;;;;;2.80;1.90;;;;;;;36.73;30.42;99598.93;220067;1254;140351;-69
2023/07/16 11:24:46;;;;;;;1.90;1.80;;;;;;;36.60;30.27;99600.50;219496;1254;140100;-69
2023/07/16 11:29:53;;;;;;;1.50;1.40;;;;;;;36.17;30.37;99610.90;219459;1254;140281;-74
2023/07/16 11:35:01;;;;;;;2.10;2.00;;;;;;;35.84;30.64;99612.20;220038;1256;139776;-73
2023/07/16 11:40:08;;;;;;;1.60;1.50;;;;;;;35.57;30.89;99611.98;218567;1254;138891;-75
2023/07/16 11:45:27;;;;;;;2.20;1.50;;;;;;;35.16;31.02;99611.80;218266;1254;139227;-71
2023/07/16 11:50:32;;;;;;;1.10;1.10;;;;;;;34.74;31.06;99604.04;217901;1257;140408;-70
2023/07/16 11:55:37;;;;;;;1.40;1.10;;;;;;;34.41;31.62;99596.91;218709;1253;140806;-74
2023/07/16 12:00:43;;;;;;;1.50;1.40;;;;;;;34.25;32.25;99587.83;218570;1254;138876;-75
2023/07/16 12:05:48;;;;;;;1.60;1.50;;;;;;;34.19;32.49;99589.35;218011;1254;139458;-74
2023/07/16 12:10:58;;;;;;;1.50;1.50;;;;;;;34.02;33.02;99592.13;218405;1257;138773;-74
2023/07/16 12:16:06;;;;;;;2.30;1.30;;;;;;;33.75;32.84;99602.45;218285;1254;138934;-70
2023/07/16 12:21:10;;;;;;;2.10;1.40;;;;;;;33.37;33.33;99601.42;219131;1253;138997;-71
2023/07/16 12:26:16;;;;;;;1.80;1.60;;;;;;;33.04;33.51;99599.09;219085;1254;140025;-70
2023/07/16 12:31:22;;;;;;;168.10;11.30;;;;;;;32.75;33.86;99602.83;218614;1255;138840;-73
2023/07/16 12:36:30;;;;;;;1.50;1.40;;;;;;;32.51;34.31;99615.20;218685;1257;140213;-70
2023/07/16 12:41:35;;;;;;;2.70;2.10;;;;;;;32.28;34.64;99613.01;218806;1254;139686;-78
2023/07/16 12:46:42;;;;;;;2.10;1.80;;;;;;;32.07;34.84;99618.02;218735;1254;138736;-78
2023/07/16 12:51:50;;;;;;;2.60;2.40;;;;;;;31.87;35.21;99615.02;219872;1253;138670;-71
2023/07/16 12:56:57;;;;;;;2.00;1.90;;;;;;;31.69;35.44;99620.84;219547;1254;140284;-78
2023/07/16 13:02:07;;;;;;;2.30;2.00;;;;;;;31.63;35.72;99622.64;220676;1254;138843;-75
2023/07/16 13:07:16;;;;;;;1.60;1.50;;;;;;;31.70;36.00;99625.58;220339;1254;139762;-80
2023/07/16 13:12:27;;;;;;;2.20;1.90;;;;;;;31.79;36.41;99628.52;219782;1254;138988;-81
2023/07/16 13:17:37;;;;;;;4.30;1.80;;;;;;;31.85;36.30;99635.23;218830;1255;139860;-73
2023/07/16 13:22:42;;;;;;;1.70;1.40;;;;;;;31.77;36.29;99632.65;219214;1254;139916;-71
2023/07/16 13:27:49;;;;;;;2.60;2.10;;;;;;;31.66;36.48;99639.23;219213;1256;139705;-71
2023/07/16 13:32:56;;;;;;;2.10;1.70;;;;;;;31.91;36.72;99644.20;218154;1256;138920;-70
2023/07/16 13:38:02;;;;;;;2.90;1.60;;;;;;;32.05;36.70;99640.63;219455;1256;139757;-79
2023/07/16 13:43:05;;;;;;;1.80;1.70;;;;;;;31.98;36.58;99643.40;218752;1256;138998;-76
2023/07/16 13:48:10;;;;;;;2.00;1.50;;;;;;;31.83;36.35;99648.54;219112;1254;138464;-70
2023/07/16 13:53:16;;;;;;;2.40;1.80;;;;;;;31.68;36.32;99659.58;217962;1255;139893;-73
2023/07/16 13:58:22;;;;;;;2.60;2.00;;;;;;;31.66;36.39;99656.08;218851;1256;139994;-71
2023/07/16 14:03:27;;;;;;;8.50;2.10;;;;;;;31.64;36.74;99653.75;219306;1256;138620;-75
2023/07/16 14:08:33;;;;;;;2.10;1.90;;;;;;;31.60;36.74;99654.65;218234;1257;138929;-76
2023/07/16 14:13:38;;;;;;;1.60;1.50;;;;;;;31.59;37.10;99661.58;217988;1259;139367;-76
2023/07/16 14:18:43;;;;;;;1.80;1.70;;;;;;;31.60;37.33;99663.63;217761;1258;142199;-74
2023/07/16 14:23:47;;;;;;;1.70;1.60;;;;;;;31.59;37.36;99670.54;218253;1257;141101;-74
2023/07/16 14:28:52;;;;;;;3.80;1.80;;;;;;;31.59;37.26;99675.19;217950;1257;139710;-69
2023/07/16 14:33:58;;;;;;;2.60;1.80;;;;;;;31.44;37.17;99675.41;219599;1253;139339;-71
2023/07/16 14:39:03;;;;;;;;;;;;;;;31.17;37.54;99679.25;217988;1254;139659;-76
2023/07/16 14:44:08;;;;;;;1.90;1.60;;;;;;;30.81;38.09;99684.80;219295;1254;128270;-71
2023/07/16 14:49:13;;;;;;;2.90;1.80;;;;;;;30.55;38.55;99689.84;220716;1254;139587;-76
2023/07/16 14:54:19;;;;;;;2.40;2.00;;;;;;;30.43;39.13;99694.10;219404;1255;138917;-76
2023/07/16 14:59:25;;;;;;;2.70;1.80;;;;;;;30.38;39.28;99693.16;220374;1254;139822;-71
2023/07/16 15:04:30;;;;;;;1.90;1.40;;;;;;;30.36;39.59;99690.93;218231;1257;138870;-74
2023/07/16 15:09:37;;;;;;;2.50;2.30;;;;;;;30.30;39.76;99694.38;218863;1254;139857;-77
2023/07/16 15:14:42;;;;;;;1.80;1.70;;;;;;;30.29;40.01;99695.52;218838;1254;139069;-75
2023/07/16 15:19:46;;;;;;;5.30;1.90;;;;;;;30.31;40.24;99702.08;219455;1254;140426;-75
2023/07/16 15:24:51;;;;;;;2.10;1.70;;;;;;;30.26;40.36;99697.60;218246;1256;138933;-68
2023/07/16 15:29:56;;;;;;;26.80;3.10;;;;;;;30.06;40.38;99693.10;217606;1254;139754;-70
2023/07/16 15:35:04;;;;;;;1.70;1.60;;;;;;;29.97;40.48;99686.16;218467;1259;139842;-70
2023/07/16 15:40:12;;;;;;;;;;;;;;;29.83;40.52;99686.83;217754;1256;139328;-73
2023/07/16 15:45:17;;;;;;;2.90;1.30;;;;;;;29.68;40.90;99692.54;218825;1259;125527;-74
2023/07/16 15:50:26;;;;;;;2.20;1.80;;;;;;;29.60;40.94;99683.98;217966;1255;139414;-77
2023/07/16 15:55:34;;;;;;;2.90;1.40;;;;;;;29.55;41.54;99675.72;218101;1257;138897;-80
2023/07/16 16:00:41;;;;;;;1.90;1.80;;;;;;;29.47;41.80;99676.49;218782;1257;139802;-77
2023/07/16 16:05:48;;;;;;;1.60;1.40;;;;;;;29.36;41.72;99681.52;219003;1256;139961;-77
2023/07/16 16:10:53;;;;;;;1.60;1.50;;;;;;;29.25;41.95;99682.53;218209;1259;138691;-71
2023/07/16 16:15:57;;;;;;;;;;;;;;;29.11;42.12;99685.21;218226;1257;140148;-74
2023/07/16 16:21:02;;;;;;;1.50;1.40;;;;;;;28.95;42.51;99688.33;219667;1259;139577;-76
2023/07/16 16:26:07;;;;;;;9.50;1.70;;;;;;;28.92;42.59;99693.11;217908;1259;139262;-72
2023/07/16 16:31:12;;;;;;;2.00;1.70;;;;;;;28.95;42.73;99694.86;219466;1259;140376;-74
2023/07/16 16:36:17;;;;;;;3.30;1.90;;;;;;;28.96;42.94;99692.29;218466;1257;139879;-75
2023/07/16 16:41:22;;;;;;;1.40;1.30;;;;;;;29.01;43.15;99691.45;220432;1256;139177;-73
2023/07/16 16:46:26;;;;;;;1.90;1.70;;;;;;;28.93;42.99;99693.55;219256;1256;138809;-69
2023/07/16 16:51:31;;;;;;;1.90;1.80;;;;;;;28.83;43.39;99695.20;219382;1257;140410;-74
2023/07/16 16:56:38;;;;;;;2.30;1.90;;;;;;;28.74;43.59;99694.27;218763;1256;139925;-70
2023/07/16 17:01:42;;;;;;;;;;;;;;;28.63;44.03;99699.89;220535;1256;138533;-74
2023/07/16 17:06:47;;;;;;;2.30;1.60;;;;;;;28.53;44.01;99704.58;219351;1258;126341;-72
2023/07/16 17:11:51;;;;;;;2.40;2.20;;;;;;;28.40;44.21;99705.85;217855;1258;140953;-70
2023/07/16 17:16:55;;;;;;;14.00;2.90;;;;;;;28.27;44.56;99705.83;219321;1257;140384;-71
2023/07/16 17:22:00;;;;;;;2.20;2.10;;;;;;;28.12;44.97;99707.05;218318;1257;140062;-75
2023/07/16 17:27:05;;;;;;;2.30;2.10;;;;;;;27.85;45.10;99714.65;218124;1259;139092;-79
2023/07/16 17:32:11;;;;;;;2.50;2.30;;;;;;;27.59;45.58;99712.74;218065;1256;984865;-72
2023/07/16 17:37:18;;;;;;;3.10;2.50;;;;;;;27.36;45.93;99716.08;217726;1257;139213;-71
2023/07/16 17:42:27;;;;;;;2.50;2.30;;;;;;;27.25;46.05;99719.95;218781;1255;139041;-68
2023/07/16 17:47:34;;;;;;;2.30;2.20;;;;;;;27.13;46.65;99714.15;219111;1259;140078;-68
2023/07/16 17:52:38;;;;;;;4.70;2.20;;;;;;;27.06;47.17;99709.39;218460;1256;141159;-73
2023/07/16 17:57:43;;;;;;;4.50;2.10;;;;;;;26.99;47.45;99703.39;218392;1259;140865;-69
2023/07/16 18:02:50;;;;;;;1.90;1.80;;;;;;;26.91;48.11;99719.88;218085;1257;139274;-67
2023/07/16 18:07:57;;;;;;;2.30;2.20;;;;;;;26.81;48.59;99730.89;218235;1257;139344;-69
2023/07/16 18:13:05;;;;;;;1.90;1.90;;;;;;;26.73;49.17;99727.48;218721;1256;151989;-68
2023/07/16 18:18:11;;;;;;;2.30;2.20;;;;;;;26.66;49.09;99722.10;218326;1256;139848;-74
2023/07/16 18:23:17;;;;;;;15.70;2.90;;;;;;;26.64;49.73;99728.67;217746;1259;139051;-69
2023/07/16 18:28:24;;;;;;;;;;;;;;;26.58;50.19;99730.23;219291;1257;138970;-72
2023/07/16 18:33:35;;;;;;;5.00;2.40;;;;;;;26.48;50.63;99734.64;218754;1258;127102;-69
2023/07/16 18:38:41;;;;;;;2.10;2.00;;;;;;;26.37;50.57;99733.98;219083;1257;138688;-69
2023/07/16 18:43:47;;;;;;;4.90;2.70;;;;;;;26.30;51.03;99737.95;220185;1257;139888;-70
2023/07/16 18:48:54;;;;;;;2.50;1.70;;;;;;;26.22;51.77;99736.59;220568;1256;140619;-71
2023/07/16 18:54:00;;;;;;;2.40;2.30;;;;;;;26.09;52.29;99741.67;220685;1256;139374;-66
2023/07/16 18:59:05;;;;;;;3.70;2.40;;;;;;;25.99;52.81;99743.10;220377;1256;140206;-66
2023/07/16 19:04:11;;;;;;;5.80;2.30;;;;;;;25.84;53.00;99746.65;219443;1255;139442;-70
2023/07/16 19:09:21;;;;;;;3.40;2.20;;;;;;;25.68;53.34;99752.31;218385;1257;138905;-69
2023/07/16 19:14:27;;;;;;;31.70;4.00;;;;;;;25.49;53.54;99756.72;219212;1256;139028;-66
2023/07/16 19:19:33;;;;;;;3.70;2.10;;;;;;;25.23;53.82;99759.42;219985;1254;140237;-71
2023/07/16 19:24:39;;;;;;;3.00;2.40;;;;;;;24.93;54.27;99764.98;218678;1259;139363;-66
2023/07/16 19:29:51;;;;;;;5.30;2.80;;;;;;;24.69;54.74;99770.90;218865;1254;138831;-73
2023/07/16 19:35:01;;;;;;;3.90;2.80;;;;;;;24.37;54.98;99772.23;218068;1259;138747;-67
2023/07/16 19:40:11;;;;;;;4.80;2.80;;;;;;;24.10;55.44;99778.02;218669;1254;139483;-71
2023/07/16 19:45:17;;;;;;;5.60;2.60;;;;;;;23.89;55.98;99784.29;218117;1258;139515;-69
2023/07/16 19:50:22;;;;;;;3.60;2.70;;;;;;;23.70;56.16;99785.13;217846;1254;139557;-70
2023/07/16 19:55:28;;;;;;;2.90;2.80;;;;;;;23.48;56.51;99785.84;217894;1259;139195;-70
2023/07/16 20:00:33;;;;;;;3.60;3.30;;;;;;;23.27;56.90;99786.48;218510;1257;139812;-65
2023/07/16 20:05:39;;;;;;;3.90;3.60;;;;;;;23.09;57.03;99786.82;218842;1258;139303;-65
2023/07/16 20:10:46;;;;;;;;;;;;;;;22.95;57.45;99791.55;218337;1259;140234;-65
2023/07/16 20:15:55;;;;;;;5.20;3.00;;;;;;;22.70;57.85;99786.67;219274;1259;126272;-64
2023/07/16 20:21:07;;;;;;;3.00;2.80;;;;;;;22.54;58.29;99786.03;218018;1259;139078;-69
2023/07/16 20:26:14;;;;;;;2.90;2.70;;;;;;;22.41;58.69;99790.63;219805;1259;161872;-73
2023/07/16 20:31:25;;;;;;;3.10;2.90;;;;;;;22.25;58.89;99788.02;219302;1259;140094;-67
2023/07/16 20:36:32;;;;;;;3.60;3.30;;;;;;;22.11;59.33;99792.65;219616;1259;140265;-66
2023/07/16 20:41:39;;;;;;;2.90;2.70;;;;;;;22.01;59.69;99796.52;218322;1256;141690;-75
2023/07/16 20:46:44;;;;;;;3.20;2.80;;;;;;;21.89;59.90;99791.45;220688;1256;140057;-69
2023/07/16 20:51:51;;;;;;;3.10;2.80;;;;;;;21.74;60.20;99795.16;219863;1257;140386;-65
2023/07/16 20:56:58;;;;;;;2.90;2.70;;;;;;;21.53;60.44;99791.30;219913;1259;139684;-65
2023/07/16 21:02:03;;;;;;;3.60;3.30;;;;;;;21.38;60.96;99787.35;219690;1257;140221;-68
2023/07/16 21:07:13;;;;;;;3.70;2.90;;;;;;;21.32;61.31;99788.31;217804;1256;221753;-68
2023/07/16 21:12:20;;;;;;;3.40;3.10;;;;;;;21.19;61.60;99790.94;219115;1254;141283;-69
2023/07/16 21:17:26;;;;;;;5.00;3.30;;;;;;;21.02;61.60;99794.48;218204;1257;140326;-71
2023/07/16 21:22:35;;;;;;;7.50;3.20;;;;;;;20.76;62.16;99793.10;217937;1260;140558;-71
2023/07/16 21:27:48;;;;;;;11.40;3.00;;;;;;;20.64;62.64;99796.86;219220;1259;139812;-68
2023/07/16 21:32:53;;;;;;;3.60;3.10;;;;;;;20.57;62.90;99798.65;218201;1259;140782;-64
2023/07/16 21:37:58;;;;;;;4.10;3.10;;;;;;;20.43;62.99;99801.66;218495;1257;139659;-67
2023/07/16 21:43:03;;;;;;;2.80;2.50;;;;;;;20.24;63.22;99801.65;218289;1259;139803;-64
2023/07/16 21:48:08;;;;;;;7.00;3.30;;;;;;;20.06;63.51;99806.35;218698;1254;140474;-64
2023/07/16 21:53:14;;;;;;;3.20;2.90;;;;;;;19.89;64.15;99808.34;218901;1259;139726;-66
2023/07/16 21:58:19;;;;;;;3.40;3.00;;;;;;;19.73;64.48;99815.02;218572;1260;141707;-66
2023/07/16 22:03:23;;;;;;;3.80;3.10;;;;;;;19.58;64.80;99815.45;217903;1257;140173;-70
2023/07/16 22:08:28;;;;;;;5.00;2.60;;;;;;;19.44;64.95;99806.04;218212;1257;140078;-69
2023/07/16 22:13:33;;;;;;;4.90;3.20;;;;;;;19.30;65.19;99807.80;218409;1258;140407;-68
2023/07/16 22:18:38;;;;;;;3.00;2.80;;;;;;;19.22;65.40;99808.02;219846;1257;141707;-68
2023/07/16 22:23:42;;;;;;;7.20;2.60;;;;;;;19.09;65.50;99813.03;219392;1257;140316;-68
2023/07/16 22:28:46;;;;;;;3.70;3.40;;;;;;;18.93;65.68;99804.69;218537;1254;140489;-71
2023/07/16 22:33:51;;;;;;;7.20;3.00;;;;;;;18.82;66.17;99810.65;218159;1257;139959;-69
2023/07/16 22:38:55;;;;;;;5.20;3.70;;;;;;;18.74;66.48;99813.54;220808;1254;140389;-68
2023/07/16 22:44:00;;;;;;;4.20;2.70;;;;;;;18.69;66.87;99817.59;219592;1257;140101;-69
2023/07/16 22:49:06;;;;;;;2.80;2.60;;;;;;;18.63;66.94;99821.38;220065;1256;245317;-70
2023/07/16 22:54:10;;;;;;;2.90;2.70;;;;;;;18.55;67.04;99833.77;220616;1255;139882;-67
2023/07/16 22:59:14;;;;;;;6.50;2.70;;;;;;;18.43;67.27;99830.45;220009;1254;139639;-67
2023/07/16 23:04:18;;;;;;;3.60;3.40;;;;;;;18.37;67.88;99834.98;218969;1257;139976;-69
2023/07/16 23:09:23;;;;;;;4.50;3.70;;;;;;;18.41;68.50;99845.64;218253;1256;140255;-68
2023/07/16 23:14:30;;;;;;;3.60;3.40;;;;;;;18.41;68.56;99848.07;218011;1260;140693;-72
2023/07/16 23:19:35;;;;;;;5.40;4.30;;;;;;;18.37;68.95;99854.20;218667;1257;139602;-70
2023/07/16 23:24:40;;;;;;;3.90;3.60;;;;;;;18.39;69.24;99865.30;217901;1257;139572;-70
2023/07/16 23:29:45;;;;;;;4.10;3.50;;;;;;;18.39;69.45;99860.71;217922;1256;141053;-69